Time;durP1;ratioP1;P1;durP2;ratioP2;P2;SDS_P1;SDS_P2;PMS_P1;PMS_P2;Temp;Humidity;BMP_temperature;BMP_pressure;BME280_temperature;BME280_humidity;BME280_pressure;Samples;Min_cycle;Max_cycle;Signal;HPM_P1;HPM_P2
2021/04/18 00:00:57;;;;;;;5.03;4.03;;;8.60;99.90;;;;;;5083052;28;20617;-76
2021/04/18 00:03:24;;;;;;;5.20;4.70;;;8.50;99.90;;;;;;5084274;28;20172;-76
2021/04/18 00:05:49;;;;;;;5.67;4.77;;;8.50;99.90;;;;;;5080240;28;20543;-76
2021/04/18 00:08:15;;;;;;;7.13;4.30;;;8.50;99.90;;;;;;5084722;28;20417;-76
2021/04/18 00:10:42;;;;;;;6.60;4.27;;;8.50;99.90;;;;;;5082266;28;20554;-76
2021/04/18 00:13:11;;;;;;;5.93;4.00;;;8.40;99.90;;;;;;5081016;28;20216;-76
2021/04/18 00:15:39;;;;;;;4.83;4.43;;;8.40;99.90;;;;;;5081168;28;20779;-76
2021/04/18 00:18:06;;;;;;;5.90;4.60;;;8.40;99.90;;;;;;5084199;28;20433;-76
2021/04/18 00:20:32;;;;;;;5.10;3.60;;;8.40;99.90;;;;;;5082398;28;20441;-76
2021/04/18 00:22:57;;;;;;;7.73;4.00;;;8.40;99.90;;;;;;5081257;28;20411;-76
2021/04/18 00:25:23;;;;;;;5.47;3.97;;;8.50;99.90;;;;;;5080464;28;20180;-76
2021/04/18 00:27:49;;;;;;;5.93;4.90;;;8.50;99.90;;;;;;5081659;28;20183;-76
2021/04/18 00:30:17;;;;;;;6.23;4.70;;;8.50;99.90;;;;;;5082106;28;20660;-76
2021/04/18 00:32:43;;;;;;;5.73;4.00;;;8.60;99.90;;;;;;5080824;28;20895;-76
2021/04/18 00:35:10;;;;;;;4.90;4.50;;;8.50;99.90;;;;;;5080229;28;20457;-76
2021/04/18 00:37:38;;;;;;;6.43;4.70;;;8.60;99.90;;;;;;5079665;28;20521;-76
2021/04/18 00:40:13;;;;;;;8.47;6.57;;;8.60;99.90;;;;;;5083158;28;20437;-76
2021/04/18 00:42:39;;;;;;;5.80;5.17;;;8.70;99.90;;;;;;5083510;28;20440;-76
2021/04/18 00:45:07;;;;;;;9.07;4.90;;;8.70;99.90;;;;;;5082043;28;20768;-76
2021/04/18 00:47:33;;;;;;;5.50;5.00;;;8.60;99.90;;;;;;5081375;28;20524;-76
2021/04/18 00:50:03;;;;;;;7.53;4.80;;;8.60;99.90;;;;;;5083426;28;20524;-76
2021/04/18 00:52:28;;;;;;;9.40;5.20;;;8.50;99.90;;;;;;5078604;28;20739;-76
2021/04/18 00:54:54;;;;;;;10.23;5.47;;;8.50;99.90;;;;;;5082030;28;20466;-76
2021/04/18 00:57:20;;;;;;;7.30;5.20;;;8.50;99.90;;;;;;5079880;28;20266;-76
2021/04/18 00:59:46;;;;;;;5.83;5.30;;;8.50;99.90;;;;;;5079837;28;20617;-76
2021/04/18 01:02:12;;;;;;;11.53;5.70;;;8.50;99.90;;;;;;5081916;28;20533;-76
2021/04/18 01:04:37;;;;;;;6.30;5.30;;;8.50;99.90;;;;;;5081127;28;20533;-76
2021/04/18 01:07:03;;;;;;;4.40;4.00;;;8.60;99.90;;;;;;5080256;28;20529;-78
2021/04/18 01:09:30;;;;;;;9.77;5.10;;;8.60;99.90;;;;;;5078811;28;20204;-76
2021/04/18 01:11:57;;;;;;;7.40;5.00;;;8.60;99.90;;;;;;5081361;28;20446;-76
2021/04/18 01:14:23;;;;;;;6.90;4.83;;;8.50;99.90;;;;;;5081761;28;20497;-77
2021/04/18 01:16:48;;;;;;;7.37;4.53;;;8.60;99.90;;;;;;5079839;28;20508;-76
2021/04/18 01:19:14;;;;;;;8.33;5.77;;;8.60;99.90;;;;;;5082521;28;20617;-77
2021/04/18 01:21:40;;;;;;;10.60;5.30;;;8.50;99.90;;;;;;5080075;28;20172;-76
2021/04/18 01:24:06;;;;;;;9.57;5.50;;;8.60;99.90;;;;;;5079543;28;21768;-76
2021/04/18 01:26:33;;;;;;;7.73;5.50;;;8.60;99.90;;;;;;5080323;28;20336;-78
2021/04/18 01:28:59;;;;;;;7.20;5.10;;;8.50;99.90;;;;;;5077362;28;20433;-76
2021/04/18 01:31:25;;;;;;;9.10;4.73;;;8.60;99.90;;;;;;5080400;28;20462;-76
2021/04/18 01:33:51;;;;;;;9.30;5.10;;;8.60;99.90;;;;;;5078042;28;20470;-76
2021/04/18 01:36:17;;;;;;;5.57;4.80;;;8.50;99.90;;;;;;5079943;28;20218;-77
2021/04/18 01:38:43;;;;;;;6.90;6.07;;;8.50;99.90;;;;;;5079437;28;20916;-76
2021/04/18 01:41:09;;;;;;;7.63;5.67;;;8.50;99.90;;;;;;5080230;28;20189;-76
2021/04/18 01:43:38;;;;;;;5.40;4.90;;;8.50;99.90;;;;;;5079937;28;20422;-77
2021/04/18 01:46:04;;;;;;;10.40;5.27;;;8.50;99.90;;;;;;5080339;28;20840;-76
2021/04/18 01:48:29;;;;;;;11.50;5.80;;;8.50;99.90;;;;;;5080279;28;20462;-76
2021/04/18 01:50:55;;;;;;;9.23;5.17;;;8.40;99.90;;;;;;5080270;28;20185;-76
2021/04/18 01:53:21;;;;;;;5.77;5.27;;;8.40;99.90;;;;;;5079685;28;20227;-76
2021/04/18 01:55:47;;;;;;;7.27;4.77;;;8.40;99.90;;;;;;5077063;28;20967;-76
2021/04/18 01:58:13;;;;;;;9.90;5.87;;;8.30;99.90;;;;;;5094753;28;20494;-76
2021/04/18 02:00:39;;;;;;;8.60;5.37;;;8.30;99.90;;;;;;5080409;28;20430;-76
2021/04/18 02:03:04;;;;;;;11.13;4.70;;;8.20;99.90;;;;;;5079154;28;20245;-76
2021/04/18 02:05:32;;;;;;;7.87;5.70;;;8.10;99.90;;;;;;5079464;28;20496;-76
2021/04/18 02:07:58;;;;;;;9.43;6.00;;;8.10;99.90;;;;;;5081074;28;20237;-76
2021/04/18 02:10:24;;;;;;;8.77;5.30;;;8.20;99.90;;;;;;5079291;28;20437;-76
2021/04/18 02:12:51;;;;;;;10.40;6.10;;;8.20;99.90;;;;;;5080064;28;20433;-75
2021/04/18 02:15:17;;;;;;;8.63;6.00;;;8.30;99.90;;;;;;5079547;28;20512;-75
2021/04/18 02:17:43;;;;;;;11.13;5.73;;;8.30;99.90;;;;;;5080357;28;20462;-75
2021/04/18 02:20:09;;;;;;;9.90;5.73;;;8.20;99.90;;;;;;5080833;28;20444;-75
2021/04/18 02:22:35;;;;;;;8.57;5.80;;;8.10;99.90;;;;;;5080346;28;20229;-75
2021/04/18 02:25:01;;;;;;;7.10;5.40;;;8.00;99.90;;;;;;5079005;28;20426;-75
2021/04/18 02:27:27;;;;;;;10.10;6.20;;;8.00;99.90;;;;;;5078246;28;20183;-75
2021/04/18 02:29:55;;;;;;;16.53;5.20;;;8.00;99.90;;;;;;5077752;28;20468;-75
2021/04/18 02:32:20;;;;;;;9.20;5.77;;;7.90;99.90;;;;;;5080552;28;20447;-75
2021/04/18 02:34:47;;;;;;;9.70;5.77;;;7.90;99.90;;;;;;5079981;28;20462;-75
2021/04/18 02:37:13;;;;;;;6.97;5.27;;;7.80;99.90;;;;;;5078600;28;20441;-75
2021/04/18 02:39:39;;;;;;;7.20;6.50;;;7.90;99.90;;;;;;5078354;28;21008;-75
2021/04/18 02:42:05;;;;;;;8.20;5.67;;;7.80;99.90;;;;;;5079501;28;20194;-75
2021/04/18 02:44:31;;;;;;;6.80;4.90;;;7.80;99.90;;;;;;5080583;28;20182;-75
2021/04/18 02:46:57;;;;;;;8.80;5.20;;;7.70;99.90;;;;;;5081450;28;20442;-75
2021/04/18 02:49:22;;;;;;;8.83;5.43;;;7.70;99.90;;;;;;5086269;28;20189;-75
2021/04/18 02:51:48;;;;;;;7.10;5.70;;;7.70;99.90;;;;;;5084050;28;20445;-75
2021/04/18 02:54:14;;;;;;;13.40;5.27;;;7.70;99.90;;;;;;5084979;28;20203;-75
2021/04/18 02:56:39;;;;;;;6.23;4.93;;;7.60;99.90;;;;;;5081961;28;20180;-75
2021/04/18 02:59:05;;;;;;;5.30;4.80;;;7.60;99.90;;;;;;5085631;28;20252;-75
2021/04/18 03:01:30;;;;;;;10.63;4.10;;;7.50;99.90;;;;;;5080587;28;20686;-75
2021/04/18 03:03:56;;;;;;;6.13;4.43;;;7.50;99.90;;;;;;5082988;28;20611;-75
2021/04/18 03:06:22;;;;;;;5.43;4.60;;;7.50;99.90;;;;;;5082275;28;20622;-75
2021/04/18 03:08:47;;;;;;;6.70;5.57;;;7.50;99.90;;;;;;5085193;28;20183;-75
2021/04/18 03:11:13;;;;;;;7.57;4.70;;;7.40;99.90;;;;;;5083035;28;20266;-75
2021/04/18 03:13:39;;;;;;;9.10;4.90;;;7.40;99.90;;;;;;5082431;28;20283;-75
2021/04/18 03:16:05;;;;;;;5.83;4.07;;;7.30;99.90;;;;;;5080298;28;20992;-75
2021/04/18 03:18:31;;;;;;;6.93;4.90;;;7.30;99.90;;;;;;5085267;28;20177;-75
2021/04/18 03:20:57;;;;;;;11.77;5.90;;;7.30;99.90;;;;;;5084100;28;20449;-75
2021/04/18 03:23:23;;;;;;;6.63;4.70;;;7.20;99.90;;;;;;5079335;28;20176;-75
2021/04/18 03:25:49;;;;;;;6.20;4.70;;;7.20;99.90;;;;;;5082809;28;20267;-75
2021/04/18 03:28:14;;;;;;;6.97;4.53;;;7.10;99.90;;;;;;5082947;28;20194;-75
2021/04/18 03:30:40;;;;;;;6.17;4.23;;;7.10;99.90;;;;;;5081128;28;20482;-75
2021/04/18 03:33:06;;;;;;;4.87;4.40;;;7.10;99.90;;;;;;5084565;28;20718;-75
2021/04/18 03:35:31;;;;;;;5.90;4.10;;;7.00;99.90;;;;;;5081285;28;20458;-75
2021/04/18 03:37:57;;;;;;;5.70;4.40;;;7.00;99.90;;;;;;5083683;28;20245;-76
2021/04/18 03:40:23;;;;;;;6.07;4.33;;;6.90;99.90;;;;;;5082755;28;20201;-76
2021/04/18 03:42:48;;;;;;;16.17;5.27;;;6.80;99.90;;;;;;5083200;28;20180;-76
2021/04/18 03:45:14;;;;;;;6.50;4.47;;;6.80;99.90;;;;;;5083156;28;20632;-75
2021/04/18 03:47:43;;;;;;;7.53;3.97;;;6.70;99.90;;;;;;5083179;28;20178;-76
2021/04/18 03:50:10;;;;;;;4.60;3.87;;;6.70;99.90;;;;;;5083049;28;20451;-75
2021/04/18 03:52:36;;;;;;;6.03;3.97;;;6.60;99.90;;;;;;5082318;28;20773;-76
2021/04/18 03:55:02;;;;;;;4.03;3.73;;;6.60;99.90;;;;;;5082172;28;20461;-75
2021/04/18 03:57:28;;;;;;;8.20;4.30;;;6.60;99.90;;;;;;5082076;28;20180;-75
2021/04/18 03:59:54;;;;;;;5.90;4.10;;;6.50;99.90;;;;;;5083436;28;20906;-75
2021/04/18 04:02:19;;;;;;;4.40;4.00;;;6.50;99.90;;;;;;5082529;28;20184;-76
2021/04/18 04:04:45;;;;;;;9.30;4.50;;;6.50;99.90;;;;;;5081326;28;20177;-77
2021/04/18 04:07:11;;;;;;;5.90;3.70;;;6.50;99.90;;;;;;5082017;28;20180;-76
2021/04/18 04:09:38;;;;;;;7.20;4.07;;;6.50;99.90;;;;;;5083900;28;20580;-75
2021/04/18 04:12:04;;;;;;;5.30;3.13;;;6.50;99.90;;;;;;5078889;28;20448;-75
2021/04/18 04:14:30;;;;;;;5.63;3.80;;;6.50;99.90;;;;;;5082229;28;20587;-76
2021/04/18 04:16:55;;;;;;;5.33;4.23;;;6.40;99.90;;;;;;5081526;28;20964;-75
2021/04/18 04:19:21;;;;;;;5.70;3.90;;;6.50;99.90;;;;;;5081052;28;20187;-75
2021/04/18 04:21:47;;;;;;;5.70;4.60;;;6.40;99.90;;;;;;5082576;28;20180;-75
2021/04/18 04:24:12;;;;;;;7.67;4.20;;;6.40;99.90;;;;;;5083197;28;20522;-75
2021/04/18 04:26:38;;;;;;;4.63;4.03;;;6.30;99.90;;;;;;5081588;28;20266;-75
2021/04/18 04:29:03;;;;;;;6.50;3.63;;;6.30;99.90;;;;;;5081033;28;20552;-75
2021/04/18 04:31:29;;;;;;;6.57;4.03;;;6.20;99.90;;;;;;5083628;28;20256;-75
2021/04/18 04:33:55;;;;;;;11.87;4.77;;;6.20;99.90;;;;;;5081222;28;20183;-77
2021/04/18 04:36:21;;;;;;;5.30;3.93;;;6.20;99.90;;;;;;5081886;28;20187;-76
2021/04/18 04:38:47;;;;;;;5.97;4.27;;;6.30;99.90;;;;;;5080360;28;20187;-76
2021/04/18 04:41:13;;;;;;;8.63;3.83;;;6.20;99.90;;;;;;5080741;28;20426;-76
2021/04/18 04:43:38;;;;;;;8.17;4.17;;;6.20;99.90;;;;;;5083385;28;20548;-76
2021/04/18 04:46:04;;;;;;;8.43;4.00;;;6.20;99.90;;;;;;5078999;28;20182;-76
2021/04/18 04:48:29;;;;;;;7.80;3.63;;;6.10;99.90;;;;;;5083268;28;20180;-76
2021/04/18 04:50:56;;;;;;;4.50;3.47;;;6.20;99.90;;;;;;5079339;28;20186;-76
2021/04/18 04:53:22;;;;;;;12.40;4.33;;;6.20;99.90;;;;;;5082651;28;20192;-76
2021/04/18 04:55:48;;;;;;;7.23;4.03;;;6.20;99.90;;;;;;5081226;28;20941;-76
2021/04/18 04:58:14;;;;;;;5.43;4.30;;;6.20;99.90;;;;;;5082557;28;20588;-76
2021/04/18 05:00:40;;;;;;;6.57;3.60;;;6.20;99.90;;;;;;5082119;28;20433;-76
2021/04/18 05:03:06;;;;;;;7.37;4.10;;;6.20;99.90;;;;;;5082738;28;20438;-76
2021/04/18 05:05:32;;;;;;;4.70;4.10;;;6.20;99.90;;;;;;5079577;28;20901;-76
2021/04/18 05:07:59;;;;;;;6.70;4.10;;;6.30;99.90;;;;;;5081964;28;20408;-76
2021/04/18 05:10:25;;;;;;;6.20;4.53;;;6.30;99.90;;;;;;5081093;28;20850;-76
2021/04/18 05:12:51;;;;;;;6.13;3.80;;;6.40;99.90;;;;;;5082135;28;20907;-76
2021/04/18 05:15:16;;;;;;;8.57;3.50;;;6.40;99.90;;;;;;5078162;28;20458;-76
2021/04/18 05:17:42;;;;;;;6.60;3.90;;;6.50;99.90;;;;;;5081342;28;20185;-76
2021/04/18 05:20:08;;;;;;;5.20;4.27;;;6.40;99.90;;;;;;5079038;28;20637;-76
2021/04/18 05:22:34;;;;;;;7.43;4.20;;;6.50;99.90;;;;;;5078154;28;20180;-76
2021/04/18 05:25:01;;;;;;;6.73;4.17;;;6.50;99.90;;;;;;5080726;28;20505;-75
2021/04/18 05:27:27;;;;;;;6.30;3.30;;;6.50;99.90;;;;;;5079284;28;20188;-76
2021/04/18 05:29:52;;;;;;;7.63;4.27;;;6.60;99.90;;;;;;5078957;28;20938;-76
2021/04/18 05:32:19;;;;;;;5.10;3.80;;;6.60;99.90;;;;;;5080848;28;20585;-76
2021/04/18 05:34:45;;;;;;;6.00;4.10;;;6.60;99.90;;;;;;5076118;28;20204;-76
2021/04/18 05:37:10;;;;;;;6.10;3.30;;;6.70;99.90;;;;;;5079669;28;20547;-75
2021/04/18 05:39:36;;;;;;;9.77;5.40;;;6.70;99.90;;;;;;5082970;28;20212;-75
2021/04/18 05:42:03;;;;;;;7.20;4.10;;;6.70;99.90;;;;;;5078135;28;20183;-75
2021/04/18 05:44:28;;;;;;;11.30;4.30;;;6.80;99.90;;;;;;5078807;28;20438;-75
2021/04/18 05:46:54;;;;;;;9.50;3.80;;;6.80;99.90;;;;;;5080156;28;20776;-75
2021/04/18 05:49:20;;;;;;;4.40;3.77;;;6.80;99.90;;;;;;5079060;28;20265;-75
2021/04/18 05:51:45;;;;;;;5.17;3.67;;;6.90;99.90;;;;;;5076797;28;20204;-75
2021/04/18 05:54:11;;;;;;;4.27;3.73;;;7.00;99.90;;;;;;5080625;28;20183;-75
2021/04/18 05:56:36;;;;;;;9.07;4.60;;;7.00;99.90;;;;;;5066629;28;20181;-75
2021/04/18 05:59:02;;;;;;;5.93;4.03;;;6.90;99.90;;;;;;5073062;28;20175;-75
2021/04/18 06:01:29;;;;;;;9.93;4.40;;;7.00;99.90;;;;;;5071517;28;20602;-75
2021/04/18 06:03:55;;;;;;;5.43;3.57;;;6.90;99.90;;;;;;5072290;28;20180;-80
2021/04/18 06:06:23;;;;;;;11.13;4.50;;;7.00;99.90;;;;;;5091140;28;20529;-75
2021/04/18 06:08:49;;;;;;;6.10;3.43;;;7.00;99.90;;;;;;5079042;28;20439;-78
2021/04/18 06:11:15;;;;;;;10.63;4.57;;;7.10;99.90;;;;;;5077688;28;20475;-75
2021/04/18 06:13:41;;;;;;;3.87;3.57;;;7.20;99.90;;;;;;5074496;28;20559;-74
2021/04/18 06:16:07;;;;;;;8.33;4.87;;;7.30;99.90;;;;;;5075970;28;20455;-75
2021/04/18 06:18:34;;;;;;;8.93;4.00;;;7.40;99.90;;;;;;5077670;28;20552;-75
2021/04/18 06:21:00;;;;;;;8.20;4.27;;;7.50;99.90;;;;;;5076365;28;20434;-75
2021/04/18 06:23:25;;;;;;;6.50;4.97;;;7.60;99.90;;;;;;5075459;28;20530;-75
2021/04/18 06:25:51;;;;;;;7.03;4.50;;;7.80;99.90;;;;;;5076150;28;20199;-75
2021/04/18 06:28:17;;;;;;;6.57;4.10;;;7.80;99.90;;;;;;5077714;28;20766;-75
2021/04/18 06:30:43;;;;;;;5.63;3.87;;;7.90;99.90;;;;;;5073018;28;20274;-76
2021/04/18 06:33:09;;;;;;;6.30;4.00;;;8.10;99.90;;;;;;5080009;28;20975;-75
2021/04/18 06:35:34;;;;;;;11.07;4.63;;;8.20;99.90;;;;;;5075200;28;20654;-76
2021/04/18 06:38:00;;;;;;;5.57;3.93;;;8.50;99.90;;;;;;5078631;28;20180;-75
2021/04/18 06:40:26;;;;;;;4.80;4.30;;;8.50;99.90;;;;;;5076184;28;20218;-75
2021/04/18 06:42:55;;;;;;;5.43;3.63;;;8.50;99.90;;;;;;5073234;28;20252;-75
2021/04/18 06:45:21;;;;;;;7.40;3.60;;;8.50;99.90;;;;;;5070162;28;20216;-75
2021/04/18 06:47:47;;;;;;;8.07;4.40;;;8.40;99.90;;;;;;5075170;28;20539;-75
2021/04/18 06:50:13;;;;;;;7.10;4.33;;;8.50;99.90;;;;;;5077825;28;20520;-75
2021/04/18 06:52:39;;;;;;;6.80;5.10;;;8.60;99.90;;;;;;5077793;28;20442;-76
2021/04/18 06:55:07;;;;;;;9.33;4.20;;;8.80;99.90;;;;;;5071003;28;20488;-76
2021/04/18 06:57:33;;;;;;;4.37;3.90;;;8.80;99.90;;;;;;5075066;28;20430;-75
2021/04/18 06:59:59;;;;;;;8.90;4.37;;;9.00;99.90;;;;;;5069961;28;20848;-76
2021/04/18 07:02:28;;;;;;;10.00;4.80;;;9.00;99.90;;;;;;5071589;28;20517;-75
2021/04/18 07:05:03;;;;;;;5.83;4.40;;;9.00;99.90;;;;;;5068158;28;20184;-76
2021/04/18 07:07:31;;;;;;;7.10;4.43;;;9.00;99.90;;;;;;5070209;28;20448;-75
2021/04/18 07:09:57;;;;;;;7.40;3.93;;;9.00;99.90;;;;;;5073603;28;20447;-75
2021/04/18 07:12:33;;;;;;;7.00;3.70;;;9.00;99.90;;;;;;5077542;28;20748;-75
2021/04/18 07:15:00;;;;;;;9.13;4.80;;;9.00;99.90;;;;;;5075043;28;20210;-76
2021/04/18 07:17:26;;;;;;;12.03;4.63;;;9.00;99.90;;;;;;5072898;28;20585;-75
2021/04/18 07:20:13;;;;;;;7.90;4.60;;;8.90;99.90;;;;;;5075766;28;20503;-75
2021/04/18 07:22:39;;;;;;;5.90;4.20;;;9.00;99.90;;;;;;5073784;28;20784;-76
2021/04/18 07:25:07;;;;;;;6.20;4.67;;;9.00;99.90;;;;;;5070998;28;20446;-76
2021/04/18 07:27:48;;;;;;;8.63;4.63;;;9.10;99.90;;;;;;5072482;28;20442;-76
2021/04/18 07:30:22;;;;;;;7.87;4.40;;;9.10;99.90;;;;;;5072782;28;20459;-75
2021/04/18 07:33:05;;;;;;;7.63;4.23;;;9.20;99.90;;;;;;5072860;28;21148;-76
2021/04/18 07:35:31;;;;;;;5.10;4.37;;;9.20;99.90;;;;;;5076123;28;20494;-76
2021/04/18 07:38:18;;;;;;;4.47;4.07;;;9.20;99.90;;;;;;5072972;28;20488;-76
2021/04/18 07:40:45;;;;;;;8.83;4.40;;;9.30;99.90;;;;;;5076995;28;20900;-76
2021/04/18 07:43:11;;;;;;;5.63;4.37;;;9.50;99.90;;;;;;5080146;28;20434;-76
2021/04/18 07:45:39;;;;;;;8.07;5.73;;;9.60;99.90;;;;;;5076440;28;20431;-76
2021/04/18 07:48:12;;;;;;;5.63;4.30;;;9.70;99.90;;;;;;5073946;28;20466;-84
2021/04/18 07:50:40;;;;;;;8.80;4.53;;;9.90;99.90;;;;;;5070428;28;20458;-79
2021/04/18 07:53:07;;;;;;;8.03;4.67;;;10.00;99.90;;;;;;5074898;28;20442;-82
2021/04/18 07:55:33;;;;;;;7.30;4.57;;;10.10;99.90;;;;;;5072337;28;20466;-81
2021/04/18 07:57:59;;;;;;;9.53;5.20;;;10.20;99.90;;;;;;5074983;28;20860;-81
2021/04/18 08:00:25;;;;;;;7.57;4.40;;;10.30;99.90;;;;;;5078760;28;20470;-81
2021/04/18 08:02:53;;;;;;;10.50;5.20;;;10.30;99.90;;;;;;5078801;28;20441;-80
2021/04/18 08:05:22;;;;;;;5.57;5.00;;;10.30;99.90;;;;;;5083065;28;20439;-79
2021/04/18 08:08:09;;;;;;;8.13;5.37;;;10.30;99.90;;;;;;5082186;28;20439;-78
2021/04/18 08:10:38;;;;;;;8.20;5.63;;;10.30;99.90;;;;;;5082684;28;20422;-80
2021/04/18 08:13:08;;;;;;;8.00;5.00;;;10.30;99.90;;;;;;5082198;28;20422;-79
2021/04/18 08:15:36;;;;;;;11.13;4.50;;;10.30;99.90;;;;;;5076793;28;20450;-79
2021/04/18 08:18:08;;;;;;;9.93;5.70;;;10.30;99.90;;;;;;5074649;28;20437;-79
2021/04/18 08:20:36;;;;;;;5.07;4.20;;;10.30;99.90;;;;;;5074036;28;20429;-79
2021/04/18 08:23:14;;;;;;;8.43;5.27;;;10.30;99.90;;;;;;5074677;28;20488;-78
2021/04/18 08:26:08;;;;;;;8.60;4.97;;;10.30;99.90;;;;;;5073172;28;20824;-78
2021/04/18 08:28:55;;;;;;;12.60;6.93;;;10.50;99.90;;;;;;5071847;28;20437;-79
2021/04/18 08:31:23;;;;;;;6.03;5.13;;;10.60;99.90;;;;;;5080950;28;20444;-77
2021/04/18 08:33:51;;;;;;;10.43;6.13;;;10.70;99.90;;;;;;5071538;28;20423;-79
2021/04/18 08:36:22;;;;;;;9.37;6.60;;;10.80;99.90;;;;;;5070864;28;20450;-79
2021/04/18 08:39:13;;;;;;;5.90;5.40;;;10.80;99.90;;;;;;5080052;28;20484;-79
2021/04/18 08:41:54;;;;;;;11.50;5.17;;;10.90;99.90;;;;;;5074229;28;20465;-79
2021/04/18 08:44:35;;;;;;;5.23;4.63;;;11.00;99.90;;;;;;5069448;28;20882;-78
2021/04/18 08:47:06;;;;;;;9.53;5.40;;;11.10;99.90;;;;;;5075529;28;20437;-78
2021/04/18 08:49:44;;;;;;;8.30;5.73;;;11.30;99.90;;;;;;5081120;28;20913;-78
2021/04/18 08:52:28;;;;;;;12.73;5.33;;;11.30;99.90;;;;;;5079466;28;20945;-79
2021/04/18 08:55:01;;;;;;;10.73;4.73;;;11.50;99.90;;;;;;5079389;28;20458;-78
2021/04/18 08:57:30;;;;;;;6.17;4.97;;;11.60;99.90;;;;;;5060251;28;20431;-79
2021/04/18 09:00:00;;;;;;;7.43;5.60;;;11.60;99.90;;;;;;5076849;28;20440;-79
2021/04/18 09:02:29;;;;;;;8.40;4.93;;;11.70;99.90;;;;;;5073077;28;23112;-79
2021/04/18 09:05:00;;;;;;;4.90;4.40;;;11.70;99.90;;;;;;5066165;28;20438;-78
2021/04/18 09:07:28;;;;;;;7.03;5.60;;;11.80;99.90;;;;;;5065558;28;20745;-77
2021/04/18 09:09:59;;;;;;;8.50;5.37;;;11.90;99.90;;;;;;5066240;28;20497;-77
2021/04/18 09:12:25;;;;;;;9.30;6.03;;;12.10;99.90;;;;;;5076912;28;20530;-77
2021/04/18 09:14:51;;;;;;;6.50;5.00;;;12.20;99.90;;;;;;5074148;28;20474;-77
2021/04/18 09:17:25;;;;;;;9.20;5.63;;;12.30;99.90;;;;;;5072347;28;20435;-77
2021/04/18 09:20:00;;;;;;;8.90;5.63;;;12.10;99.90;;;;;;5073981;28;20504;-78
2021/04/18 09:22:30;;;;;;;5.90;5.30;;;12.20;99.90;;;;;;5077929;28;20559;-77
2021/04/18 09:24:56;;;;;;;10.30;5.77;;;12.30;99.90;;;;;;5079665;28;21199;-77
2021/04/18 09:27:27;;;;;;;12.37;5.90;;;12.40;99.90;;;;;;5077534;28;20525;-79
2021/04/18 09:29:56;;;;;;;6.53;5.50;;;12.60;99.90;;;;;;5074223;28;20539;-77
2021/04/18 09:32:26;;;;;;;9.47;5.60;;;12.80;99.90;;;;;;5073919;28;20438;-78
2021/04/18 09:34:52;;;;;;;6.40;5.23;;;13.00;99.90;;;;;;5066737;28;20496;-78
2021/04/18 09:37:26;;;;;;;10.20;6.80;;;13.00;99.90;;;;;;5071055;28;20478;-78
2021/04/18 09:39:55;;;;;;;11.57;5.20;;;13.20;99.90;;;;;;5068798;28;20172;-77
2021/04/18 09:42:24;;;;;;;8.00;5.70;;;13.30;99.90;;;;;;5079411;28;20900;-77
2021/04/18 09:44:52;;;;;;;7.93;5.57;;;13.50;99.90;;;;;;5075781;28;20822;-78
2021/04/18 09:47:28;;;;;;;9.80;5.37;;;13.70;99.90;;;;;;5072536;28;20499;-77
2021/04/18 09:49:56;;;;;;;7.50;5.40;;;13.90;99.90;;;;;;5069783;28;20763;-77
2021/04/18 09:52:28;;;;;;;6.60;5.20;;;13.90;99.90;;;;;;5076391;28;20438;-76
2021/04/18 09:55:06;;;;;;;8.40;5.70;;;14.00;99.90;;;;;;5070964;28;20443;-76
2021/04/18 09:57:41;;;;;;;7.50;5.53;;;13.90;99.90;;;;;;5065669;28;20518;-77
2021/04/18 10:00:15;;;;;;;7.97;6.43;;;14.00;99.90;;;;;;5066819;28;20443;-78
2021/04/18 10:02:56;;;;;;;12.17;5.47;;;14.10;99.90;;;;;;5066568;28;20779;-78
2021/04/18 10:05:21;;;;;;;7.37;5.10;;;14.30;99.90;;;;;;5068344;28;20523;-83
2021/04/18 10:07:47;;;;;;;10.50;6.83;;;14.30;99.90;;;;;;5065748;28;20426;-85
2021/04/18 10:10:31;;;;;;;11.00;6.00;;;14.30;99.90;;;;;;5073668;28;20187;-85
2021/04/18 10:12:56;;;;;;;6.57;5.57;;;14.40;99.90;;;;;;5076654;28;20184;-83
2021/04/18 10:15:22;;;;;;;6.93;6.33;;;14.40;99.90;;;;;;5073191;28;20942;-80
2021/04/18 10:17:48;;;;;;;8.00;7.20;;;14.40;99.90;;;;;;5078040;28;20206;-81
2021/04/18 10:20:27;;;;;;;6.83;6.23;;;14.50;99.90;;;;;;5080164;28;20171;-81
2021/04/18 10:23:09;;;;;;;9.90;7.23;;;14.70;99.90;;;;;;5077029;28;20169;-79
2021/04/18 10:25:36;;;;;;;8.47;6.60;;;14.70;99.90;;;;;;5073677;28;20423;-86
2021/04/18 10:28:02;;;;;;;8.73;6.03;;;14.70;99.90;;;;;;5081902;28;20754;-85
2021/04/18 10:30:29;;;;;;;11.07;6.80;;;14.70;99.90;;;;;;5077119;28;20446;-84
2021/04/18 10:32:55;;;;;;;12.90;7.40;;;14.90;99.90;;;;;;5076721;28;20438;-85
2021/04/18 10:35:21;;;;;;;9.07;6.97;;;15.10;99.90;;;;;;5071892;28;20923;-84
2021/04/18 10:37:47;;;;;;;10.70;7.43;;;15.00;99.90;;;;;;5070228;28;20443;-83
2021/04/18 10:40:15;;;;;;;11.03;6.70;;;14.70;99.90;;;;;;5076523;28;20173;-85
2021/04/18 10:42:41;;;;;;;7.23;6.53;;;14.80;99.90;;;;;;5076629;28;20521;-82
2021/04/18 10:45:08;;;;;;;8.93;6.20;;;15.20;99.90;;;;;;5078887;28;20500;-82
2021/04/18 10:47:34;;;;;;;8.40;6.70;;;15.50;99.90;;;;;;5073112;28;20421;-83
2021/04/18 10:50:02;;;;;;;11.83;7.27;;;15.70;99.90;;;;;;5075871;28;20441;-85
2021/04/18 10:52:28;;;;;;;9.97;6.67;;;15.40;99.90;;;;;;5074746;28;20176;-83
2021/04/18 10:54:54;;;;;;;7.63;6.83;;;15.30;99.90;;;;;;5076373;28;20464;-84
2021/04/18 10:57:19;;;;;;;8.50;6.90;;;15.40;99.90;;;;;;5078087;28;20183;-84
2021/04/18 10:59:45;;;;;;;10.67;6.13;;;15.50;99.90;;;;;;5081703;28;20191;-83
2021/04/18 11:02:10;;;;;;;10.20;6.97;;;15.70;99.90;;;;;;5080158;28;20183;-83
2021/04/18 11:04:36;;;;;;;8.93;6.33;;;15.90;99.90;;;;;;5077854;28;20191;-84
2021/04/18 11:07:03;;;;;;;12.40;6.87;;;15.90;99.90;;;;;;5077394;28;20172;-84
2021/04/18 11:09:29;;;;;;;9.17;6.77;;;15.90;99.90;;;;;;5073824;28;20230;-83
2021/04/18 11:11:55;;;;;;;8.53;7.40;;;16.10;99.90;;;;;;5074811;28;20545;-79
2021/04/18 11:14:21;;;;;;;9.00;6.13;;;16.10;99.90;;;;;;5073863;28;20179;-78
2021/04/18 11:16:47;;;;;;;12.17;6.60;;;16.20;99.90;;;;;;5074205;28;20445;-82
2021/04/18 11:19:13;;;;;;;8.87;7.17;;;16.30;99.90;;;;;;5080832;28;20436;-81
2021/04/18 11:21:38;;;;;;;7.10;6.37;;;16.30;99.90;;;;;;5072124;28;20277;-80
2021/04/18 11:24:04;;;;;;;6.80;6.07;;;16.20;99.90;;;;;;5068802;28;20202;-80
2021/04/18 11:26:30;;;;;;;7.77;5.77;;;16.40;99.90;;;;;;5072888;28;20176;-79
2021/04/18 11:28:56;;;;;;;14.13;6.80;;;16.70;99.90;;;;;;5079523;28;20191;-81
2021/04/18 11:31:22;;;;;;;9.60;5.63;;;17.00;99.90;;;;;;5069550;28;20263;-79
2021/04/18 11:33:48;;;;;;;7.33;6.63;;;17.30;99.90;;;;;;5076793;28;20758;-79
2021/04/18 11:36:15;;;;;;;6.43;5.93;;;17.40;99.90;;;;;;5067868;28;20457;-80
2021/04/18 11:38:41;;;;;;;9.80;5.53;;;17.70;99.90;;;;;;5071631;28;20173;-80
2021/04/18 11:41:07;;;;;;;8.10;5.63;;;17.90;99.90;;;;;;5068248;28;20451;-79
2021/04/18 11:43:33;;;;;;;9.50;6.00;;;17.90;99.90;;;;;;5071997;28;20608;-78
2021/04/18 11:46:02;;;;;;;7.03;6.33;;;18.00;99.90;;;;;;5075069;28;20990;-79
2021/04/18 11:48:28;;;;;;;9.57;5.93;;;18.00;99.90;;;;;;5065989;28;20185;-78
2021/04/18 11:50:53;;;;;;;10.63;6.37;;;18.00;99.90;;;;;;5068928;28;20444;-77
2021/04/18 11:53:19;;;;;;;5.07;4.67;;;18.10;99.90;;;;;;5067069;28;20514;-78
2021/04/18 11:55:45;;;;;;;10.13;5.80;;;18.10;99.90;;;;;;5070138;28;20207;-77
2021/04/18 11:58:12;;;;;;;5.70;5.07;;;18.00;99.90;;;;;;5064574;28;20273;-79
2021/04/18 12:00:38;;;;;;;9.20;5.90;;;17.60;99.90;;;;;;5071200;28;20177;-79
2021/04/18 12:03:04;;;;;;;6.23;5.27;;;17.30;99.90;;;;;;5068579;28;20434;-78
2021/04/18 12:05:30;;;;;;;6.97;6.20;;;17.10;99.90;;;;;;5066293;28;23531;-78
2021/04/18 12:07:55;;;;;;;5.57;5.07;;;17.20;99.90;;;;;;5071781;28;20207;-77
2021/04/18 12:10:21;;;;;;;6.53;5.77;;;17.40;99.90;;;;;;5076053;28;20231;-77
2021/04/18 12:12:48;;;;;;;6.20;5.67;;;17.20;99.90;;;;;;5067959;28;20207;-78
2021/04/18 12:15:14;;;;;;;8.77;5.83;;;17.10;99.90;;;;;;5070870;28;20548;-77
2021/04/18 12:17:40;;;;;;;6.00;5.37;;;17.00;99.90;;;;;;5066159;28;20437;-78
2021/04/18 12:20:08;;;;;;;5.63;5.10;;;16.90;99.90;;;;;;5068112;28;20267;-78
2021/04/18 12:22:35;;;;;;;9.90;5.80;;;16.50;99.90;;;;;;5076796;28;21852;-78
2021/04/18 12:25:02;;;;;;;6.40;5.33;;;16.50;99.90;;;;;;5070962;28;20441;-78
2021/04/18 12:27:27;;;;;;;6.40;5.77;;;16.60;99.90;;;;;;5065654;28;23818;-79
2021/04/18 12:29:53;;;;;;;11.00;5.53;;;16.80;99.90;;;;;;5074105;28;20442;-78
2021/04/18 12:32:20;;;;;;;7.90;5.87;;;17.20;99.90;;;;;;5073587;28;20169;-82
2021/04/18 12:34:45;;;;;;;8.35;5.60;;;17.50;99.90;;;;;;5075881;28;20795;-86
2021/04/18 12:37:11;;;;;;;7.03;6.00;;;17.60;99.90;;;;;;5080426;28;20187;-88
2021/04/18 12:39:37;;;;;;;8.63;5.70;;;17.80;99.90;;;;;;5084639;28;20176;-89
2021/04/18 12:42:03;;;;;;;11.37;6.00;;;18.10;99.90;;;;;;5085494;28;20176;-77
2021/04/18 12:44:29;;;;;;;6.90;6.30;;;18.50;99.90;;;;;;5076114;28;20446;-77
2021/04/18 12:46:55;;;;;;;14.73;6.53;;;18.50;99.90;;;;;;5082860;28;20464;-76
2021/04/18 12:49:21;;;;;;;7.87;5.60;;;18.40;99.90;;;;;;5081243;28;20184;-77
2021/04/18 12:51:47;;;;;;;9.33;6.10;;;18.00;99.90;;;;;;5075043;28;20172;-77